sensor_id;sensor_type;location;lat;lon;timestamp;P1;durP1;ratioP1;P2;durP2;ratioP2
21569;SDS011;57598;50.888;4.746;2023-08-01T00:01:13;63.22;;;57.72;;
21569;SDS011;57598;50.888;4.746;2023-08-01T00:03:40;59.80;;;54.50;;
21569;SDS011;57598;50.888;4.746;2023-08-01T00:06:08;59.08;;;53.78;;
21569;SDS011;57598;50.888;4.746;2023-08-01T00:08:35;53.10;;;48.20;;
21569;SDS011;57598;50.888;4.746;2023-08-01T00:11:02;51.03;;;46.33;;
21569;SDS011;57598;50.888;4.746;2023-08-01T00:13:29;50.05;;;45.35;;
21569;SDS011;57598;50.888;4.746;2023-08-01T00:15:57;48.15;;;43.55;;
21569;SDS011;57598;50.888;4.746;2023-08-01T00:18:25;45.97;;;41.58;;
21569;SDS011;57598;50.888;4.746;2023-08-01T00:20:53;46.45;;;41.95;;
21569;SDS011;57598;50.888;4.746;2023-08-01T00:23:20;44.67;;;40.33;;
21569;SDS011;57598;50.888;4.746;2023-08-01T00:25:47;43.33;;;39.10;;
21569;SDS011;57598;50.888;4.746;2023-08-01T00:28:16;43.05;;;38.83;;
21569;SDS011;57598;50.888;4.746;2023-08-01T00:30:44;42.13;;;38.03;;
21569;SDS011;57598;50.888;4.746;2023-08-01T00:33:11;41.00;;;36.80;;
21569;SDS011;57598;50.888;4.746;2023-08-01T00:35:41;39.88;;;35.83;;
21569;SDS011;57598;50.888;4.746;2023-08-01T00:38:08;40.38;;;36.38;;
21569;SDS011;57598;50.888;4.746;2023-08-01T00:40:35;39.20;;;35.30;;
21569;SDS011;57598;50.888;4.746;2023-08-01T00:43:03;38.92;;;35.05;;
21569;SDS011;57598;50.888;4.746;2023-08-01T00:45:30;38.67;;;34.67;;
21569;SDS011;57598;50.888;4.746;2023-08-01T00:47:57;38.40;;;34.40;;
21569;SDS011;57598;50.888;4.746;2023-08-01T00:50:25;37.33;;;33.42;;
21569;SDS011;57598;50.888;4.746;2023-08-01T00:52:53;37.97;;;33.90;;
21569;SDS011;57598;50.888;4.746;2023-08-01T00:55:21;38.65;;;33.75;;
21569;SDS011;57598;50.888;4.746;2023-08-01T00:57:49;37.80;;;33.80;;
21569;SDS011;57598;50.888;4.746;2023-08-01T01:00:16;38.15;;;34.15;;
21569;SDS011;57598;50.888;4.746;2023-08-01T01:02:43;38.58;;;34.20;;
21569;SDS011;57598;50.888;4.746;2023-08-01T01:05:11;38.05;;;33.95;;
21569;SDS011;57598;50.888;4.746;2023-08-01T01:07:40;38.72;;;34.63;;
21569;SDS011;57598;50.888;4.746;2023-08-01T01:10:09;38.88;;;34.78;;
21569;SDS011;57598;50.888;4.746;2023-08-01T01:12:37;39.65;;;35.35;;
21569;SDS011;57598;50.888;4.746;2023-08-01T01:15:04;44.15;;;37.15;;
21569;SDS011;57598;50.888;4.746;2023-08-01T01:17:31;39.05;;;34.85;;
21569;SDS011;57598;50.888;4.746;2023-08-01T01:19:59;38.00;;;33.95;;
21569;SDS011;57598;50.888;4.746;2023-08-01T01:22:27;41.45;;;36.95;;
21569;SDS011;57598;50.888;4.746;2023-08-01T01:24:55;39.25;;;35.05;;
21569;SDS011;57598;50.888;4.746;2023-08-01T01:27:23;41.00;;;35.83;;
21569;SDS011;57598;50.888;4.746;2023-08-01T01:29:51;48.17;;;37.00;;
21569;SDS011;57598;50.888;4.746;2023-08-01T01:32:19;43.63;;;36.88;;
21569;SDS011;57598;50.888;4.746;2023-08-01T01:34:47;42.72;;;36.20;;
21569;SDS011;57598;50.888;4.746;2023-08-01T01:37:14;40.65;;;36.25;;
21569;SDS011;57598;50.888;4.746;2023-08-01T01:39:43;44.70;;;37.53;;
21569;SDS011;57598;50.888;4.746;2023-08-01T01:42:10;41.33;;;36.78;;
21569;SDS011;57598;50.888;4.746;2023-08-01T01:44:38;40.08;;;35.80;;
21569;SDS011;57598;50.888;4.746;2023-08-01T01:47:05;41.05;;;36.65;;
21569;SDS011;57598;50.888;4.746;2023-08-01T01:49:33;40.45;;;36.15;;
21569;SDS011;57598;50.888;4.746;2023-08-01T01:52:00;40.67;;;36.38;;
21569;SDS011;57598;50.888;4.746;2023-08-01T01:54:27;40.63;;;36.25;;
21569;SDS011;57598;50.888;4.746;2023-08-01T01:56:56;41.28;;;36.88;;
21569;SDS011;57598;50.888;4.746;2023-08-01T01:59:23;44.90;;;36.78;;
21569;SDS011;57598;50.888;4.746;2023-08-01T02:01:50;44.05;;;38.17;;
21569;SDS011;57598;50.888;4.746;2023-08-01T02:04:17;41.63;;;37.22;;
21569;SDS011;57598;50.888;4.746;2023-08-01T02:06:45;43.65;;;38.70;;
21569;SDS011;57598;50.888;4.746;2023-08-01T02:09:13;39.78;;;35.58;;
21569;SDS011;57598;50.888;4.746;2023-08-01T02:11:40;40.10;;;35.88;;
21569;SDS011;57598;50.888;4.746;2023-08-01T02:14:08;39.13;;;35.03;;
21569;SDS011;57598;50.888;4.746;2023-08-01T02:16:36;39.00;;;34.90;;
21569;SDS011;57598;50.888;4.746;2023-08-01T02:19:03;41.33;;;36.85;;
21569;SDS011;57598;50.888;4.746;2023-08-01T02:21:30;38.63;;;34.60;;
21569;SDS011;57598;50.888;4.746;2023-08-01T02:23:57;41.60;;;37.10;;
21569;SDS011;57598;50.888;4.746;2023-08-01T02:26:25;39.97;;;35.53;;
21569;SDS011;57598;50.888;4.746;2023-08-01T02:28:52;40.05;;;35.85;;
21569;SDS011;57598;50.888;4.746;2023-08-01T02:31:21;41.17;;;36.80;;
21569;SDS011;57598;50.888;4.746;2023-08-01T02:33:48;39.30;;;35.13;;
21569;SDS011;57598;50.888;4.746;2023-08-01T02:36:15;40.75;;;36.33;;
21569;SDS011;57598;50.888;4.746;2023-08-01T02:38:42;39.53;;;35.42;;
21569;SDS011;57598;50.888;4.746;2023-08-01T02:41:09;39.72;;;35.53;;
21569;SDS011;57598;50.888;4.746;2023-08-01T02:43:37;38.78;;;34.22;;
21569;SDS011;57598;50.888;4.746;2023-08-01T02:46:04;39.00;;;34.90;;
21569;SDS011;57598;50.888;4.746;2023-08-01T02:48:33;39.60;;;35.50;;
21569;SDS011;57598;50.888;4.746;2023-08-01T02:51:01;40.33;;;35.95;;
21569;SDS011;57598;50.888;4.746;2023-08-01T02:53:28;40.60;;;36.38;;
21569;SDS011;57598;50.888;4.746;2023-08-01T02:55:55;39.90;;;35.70;;
21569;SDS011;57598;50.888;4.746;2023-08-01T02:58:22;39.95;;;35.42;;
21569;SDS011;57598;50.888;4.746;2023-08-01T03:00:50;40.60;;;36.40;;
21569;SDS011;57598;50.888;4.746;2023-08-01T03:03:17;42.30;;;37.88;;
21569;SDS011;57598;50.888;4.746;2023-08-01T03:05:45;45.80;;;35.53;;
21569;SDS011;57598;50.888;4.746;2023-08-01T03:08:13;42.30;;;37.92;;
21569;SDS011;57598;50.888;4.746;2023-08-01T03:10:40;39.08;;;34.90;;
21569;SDS011;57598;50.888;4.746;2023-08-01T03:13:07;41.92;;;35.55;;
21569;SDS011;57598;50.888;4.746;2023-08-01T03:15:34;39.95;;;35.75;;
21569;SDS011;57598;50.888;4.746;2023-08-01T03:18:02;38.88;;;34.78;;
21569;SDS011;57598;50.888;4.746;2023-08-01T03:20:29;39.75;;;35.55;;
21569;SDS011;57598;50.888;4.746;2023-08-01T03:22:58;38.67;;;34.58;;
21569;SDS011;57598;50.888;4.746;2023-08-01T03:25:25;41.05;;;36.65;;
21569;SDS011;57598;50.888;4.746;2023-08-01T03:27:52;38.55;;;34.45;;
21569;SDS011;57598;50.888;4.746;2023-08-01T03:30:20;39.42;;;35.33;;
21569;SDS011;57598;50.888;4.746;2023-08-01T03:32:47;38.47;;;34.47;;
21569;SDS011;57598;50.888;4.746;2023-08-01T03:35:14;42.30;;;34.88;;
21569;SDS011;57598;50.888;4.746;2023-08-01T03:37:42;38.10;;;34.08;;
21569;SDS011;57598;50.888;4.746;2023-08-01T03:40:10;38.47;;;34.47;;
21569;SDS011;57598;50.888;4.746;2023-08-01T03:42:38;39.00;;;35.00;;
21569;SDS011;57598;50.888;4.746;2023-08-01T03:45:05;38.00;;;34.05;;
21569;SDS011;57598;50.888;4.746;2023-08-01T03:47:33;40.70;;;35.67;;
21569;SDS011;57598;50.888;4.746;2023-08-01T03:50:00;39.25;;;35.25;;
21569;SDS011;57598;50.888;4.746;2023-08-01T03:52:28;38.30;;;34.30;;
21569;SDS011;57598;50.888;4.746;2023-08-01T03:54:55;43.65;;;37.67;;
21569;SDS011;57598;50.888;4.746;2023-08-01T03:57:24;39.22;;;35.10;;
21569;SDS011;57598;50.888;4.746;2023-08-01T03:59:51;40.97;;;36.58;;
21569;SDS011;57598;50.888;4.746;2023-08-01T04:02:18;38.10;;;34.20;;
21569;SDS011;57598;50.888;4.746;2023-08-01T04:04:46;39.10;;;35.08;;
21569;SDS011;57598;50.888;4.746;2023-08-01T04:07:13;38.78;;;34.78;;
21569;SDS011;57598;50.888;4.746;2023-08-01T04:09:40;40.47;;;36.30;;
21569;SDS011;57598;50.888;4.746;2023-08-01T04:12:07;37.10;;;33.30;;
21569;SDS011;57598;50.888;4.746;2023-08-01T04:14:36;36.95;;;33.22;;
21569;SDS011;57598;50.888;4.746;2023-08-01T04:17:03;36.42;;;32.72;;
21569;SDS011;57598;50.888;4.746;2023-08-01T04:19:31;37.83;;;34.13;;
21569;SDS011;57598;50.888;4.746;2023-08-01T04:21:58;37.90;;;34.15;;
21569;SDS011;57598;50.888;4.746;2023-08-01T04:24:25;40.10;;;35.83;;
21569;SDS011;57598;50.888;4.746;2023-08-01T04:26:52;37.72;;;34.03;;
21569;SDS011;57598;50.888;4.746;2023-08-01T04:29:20;39.30;;;35.17;;
21569;SDS011;57598;50.888;4.746;2023-08-01T04:31:48;37.42;;;33.72;;
21569;SDS011;57598;50.888;4.746;2023-08-01T04:34:15;36.03;;;32.45;;
21569;SDS011;57598;50.888;4.746;2023-08-01T04:36:43;37.38;;;33.70;;
21569;SDS011;57598;50.888;4.746;2023-08-01T04:39:10;36.22;;;32.75;;
21569;SDS011;57598;50.888;4.746;2023-08-01T04:41:37;35.75;;;32.35;;
21569;SDS011;57598;50.888;4.746;2023-08-01T04:44:04;37.70;;;33.90;;
21569;SDS011;57598;50.888;4.746;2023-08-01T04:46:32;36.65;;;33.05;;
21569;SDS011;57598;50.888;4.746;2023-08-01T04:49:01;37.03;;;33.17;;
21569;SDS011;57598;50.888;4.746;2023-08-01T04:51:28;37.92;;;34.15;;
21569;SDS011;57598;50.888;4.746;2023-08-01T04:53:55;36.53;;;33.13;;
21569;SDS011;57598;50.888;4.746;2023-08-01T04:56:22;40.03;;;36.05;;
21569;SDS011;57598;50.888;4.746;2023-08-01T04:58:49;38.00;;;34.30;;
21569;SDS011;57598;50.888;4.746;2023-08-01T05:01:17;35.33;;;32.13;;
21569;SDS011;57598;50.888;4.746;2023-08-01T05:03:44;39.10;;;35.30;;
21569;SDS011;57598;50.888;4.746;2023-08-01T05:06:12;36.70;;;33.30;;
21569;SDS011;57598;50.888;4.746;2023-08-01T05:08:40;38.83;;;35.22;;
21569;SDS011;57598;50.888;4.746;2023-08-01T05:11:07;38.15;;;34.47;;
21569;SDS011;57598;50.888;4.746;2023-08-01T05:13:34;38.50;;;34.90;;
21569;SDS011;57598;50.888;4.746;2023-08-01T05:16:03;37.90;;;34.20;;
21569;SDS011;57598;50.888;4.746;2023-08-01T05:18:30;37.08;;;33.58;;
21569;SDS011;57598;50.888;4.746;2023-08-01T05:20:57;40.00;;;35.90;;
21569;SDS011;57598;50.888;4.746;2023-08-01T05:23:26;41.78;;;37.53;;
21569;SDS011;57598;50.888;4.746;2023-08-01T05:25:53;40.70;;;36.47;;
21569;SDS011;57598;50.888;4.746;2023-08-01T05:28:20;38.28;;;34.58;;
21569;SDS011;57598;50.888;4.746;2023-08-01T05:30:47;41.15;;;36.78;;
21569;SDS011;57598;50.888;4.746;2023-08-01T05:33:15;40.65;;;36.55;;
21569;SDS011;57598;50.888;4.746;2023-08-01T05:35:42;39.83;;;35.97;;
21569;SDS011;57598;50.888;4.746;2023-08-01T05:38:09;39.90;;;36.00;;
21569;SDS011;57598;50.888;4.746;2023-08-01T05:40:38;42.95;;;38.58;;
21569;SDS011;57598;50.888;4.746;2023-08-01T05:43:05;40.40;;;36.60;;
21569;SDS011;57598;50.888;4.746;2023-08-01T05:45:33;41.80;;;37.80;;
21569;SDS011;57598;50.888;4.746;2023-08-01T05:48:00;47.03;;;36.97;;
21569;SDS011;57598;50.888;4.746;2023-08-01T05:50:28;42.13;;;37.78;;
21569;SDS011;57598;50.888;4.746;2023-08-01T05:52:55;39.28;;;35.47;;
21569;SDS011;57598;50.888;4.746;2023-08-01T05:55:22;43.78;;;39.38;;
21569;SDS011;57598;50.888;4.746;2023-08-01T05:57:51;40.03;;;35.88;;
21569;SDS011;57598;50.888;4.746;2023-08-01T06:00:19;41.25;;;37.25;;
21569;SDS011;57598;50.888;4.746;2023-08-01T06:02:47;39.53;;;35.72;;
21569;SDS011;57598;50.888;4.746;2023-08-01T06:05:14;39.50;;;35.80;;
21569;SDS011;57598;50.888;4.746;2023-08-01T06:07:42;39.33;;;35.78;;
21569;SDS011;57598;50.888;4.746;2023-08-01T06:10:09;46.53;;;36.50;;
21569;SDS011;57598;50.888;4.746;2023-08-01T06:12:36;40.33;;;36.60;;
21569;SDS011;57598;50.888;4.746;2023-08-01T06:15:05;42.72;;;38.53;;
21569;SDS011;57598;50.888;4.746;2023-08-01T06:17:33;39.75;;;35.97;;
21569;SDS011;57598;50.888;4.746;2023-08-01T06:20:00;39.92;;;36.20;;
21569;SDS011;57598;50.888;4.746;2023-08-01T06:22:29;42.50;;;38.70;;
21569;SDS011;57598;50.888;4.746;2023-08-01T06:24:57;41.17;;;37.38;;
21569;SDS011;57598;50.888;4.746;2023-08-01T06:27:24;41.05;;;37.25;;
21569;SDS011;57598;50.888;4.746;2023-08-01T06:29:51;43.55;;;38.00;;
21569;SDS011;57598;50.888;4.746;2023-08-01T06:32:20;43.63;;;39.25;;
21569;SDS011;57598;50.888;4.746;2023-08-01T06:34:47;42.30;;;38.28;;
21569;SDS011;57598;50.888;4.746;2023-08-01T06:37:14;41.65;;;37.78;;
21569;SDS011;57598;50.888;4.746;2023-08-01T06:39:42;42.17;;;38.22;;
21569;SDS011;57598;50.888;4.746;2023-08-01T06:42:09;45.42;;;40.70;;
21569;SDS011;57598;50.888;4.746;2023-08-01T06:44:36;43.53;;;39.53;;
21569;SDS011;57598;50.888;4.746;2023-08-01T06:47:04;40.00;;;36.35;;
21569;SDS011;57598;50.888;4.746;2023-08-01T06:49:32;41.40;;;37.38;;
21569;SDS011;57598;50.888;4.746;2023-08-01T06:52:00;44.67;;;40.10;;
21569;SDS011;57598;50.888;4.746;2023-08-01T06:54:27;43.53;;;39.72;;
21569;SDS011;57598;50.888;4.746;2023-08-01T06:56:54;41.22;;;37.53;;
21569;SDS011;57598;50.888;4.746;2023-08-01T06:59:21;45.33;;;40.75;;
21569;SDS011;57598;50.888;4.746;2023-08-01T07:01:49;44.63;;;40.67;;
21569;SDS011;57598;50.888;4.746;2023-08-01T07:04:16;42.25;;;38.65;;
21569;SDS011;57598;50.888;4.746;2023-08-01T07:06:45;44.92;;;41.00;;
21569;SDS011;57598;50.888;4.746;2023-08-01T07:09:12;46.70;;;41.92;;
21569;SDS011;57598;50.888;4.746;2023-08-01T07:11:40;44.78;;;40.58;;
21569;SDS011;57598;50.888;4.746;2023-08-01T07:14:07;68.05;;;45.35;;
21569;SDS011;57598;50.888;4.746;2023-08-01T07:16:34;47.97;;;43.38;;
21569;SDS011;57598;50.888;4.746;2023-08-01T07:19:02;48.00;;;43.38;;
21569;SDS011;57598;50.888;4.746;2023-08-01T07:21:29;48.63;;;44.42;;
21569;SDS011;57598;50.888;4.746;2023-08-01T07:23:57;53.90;;;49.03;;
21569;SDS011;57598;50.888;4.746;2023-08-01T07:26:25;53.20;;;48.47;;
21569;SDS011;57598;50.888;4.746;2023-08-01T07:28:53;54.88;;;50.05;;
21569;SDS011;57598;50.888;4.746;2023-08-01T07:31:21;55.88;;;50.92;;
21569;SDS011;57598;50.888;4.746;2023-08-01T07:33:48;56.53;;;51.70;;
21569;SDS011;57598;50.888;4.746;2023-08-01T07:36:15;55.95;;;51.45;;
21569;SDS011;57598;50.888;4.746;2023-08-01T07:38:42;55.20;;;50.60;;
21569;SDS011;57598;50.888;4.746;2023-08-01T07:41:11;55.95;;;51.42;;
21569;SDS011;57598;50.888;4.746;2023-08-01T07:43:38;56.15;;;51.85;;
21569;SDS011;57598;50.888;4.746;2023-08-01T07:46:06;54.85;;;50.45;;
21569;SDS011;57598;50.888;4.746;2023-08-01T07:48:33;55.45;;;51.15;;
21569;SDS011;57598;50.888;4.746;2023-08-01T07:51:01;56.15;;;51.95;;
21569;SDS011;57598;50.888;4.746;2023-08-01T07:53:30;57.05;;;52.53;;
21569;SDS011;57598;50.888;4.746;2023-08-01T07:55:57;54.10;;;49.83;;
21569;SDS011;57598;50.888;4.746;2023-08-01T07:58:28;58.13;;;53.42;;
21569;SDS011;57598;50.888;4.746;2023-08-01T08:00:55;56.10;;;51.88;;
21569;SDS011;57598;50.888;4.746;2023-08-01T08:03:22;57.60;;;53.25;;
21569;SDS011;57598;50.888;4.746;2023-08-01T08:05:49;54.58;;;50.40;;
21569;SDS011;57598;50.888;4.746;2023-08-01T08:08:17;53.95;;;49.70;;
21569;SDS011;57598;50.888;4.746;2023-08-01T08:10:44;55.03;;;50.92;;
21569;SDS011;57598;50.888;4.746;2023-08-01T08:13:11;55.97;;;51.60;;
21569;SDS011;57598;50.888;4.746;2023-08-01T08:15:40;53.67;;;49.65;;
21569;SDS011;57598;50.888;4.746;2023-08-01T08:18:08;54.17;;;50.17;;
21569;SDS011;57598;50.888;4.746;2023-08-01T08:20:40;54.75;;;50.75;;
21569;SDS011;57598;50.888;4.746;2023-08-01T08:23:07;55.40;;;51.22;;
21569;SDS011;57598;50.888;4.746;2023-08-01T08:25:35;53.60;;;49.45;;
21569;SDS011;57598;50.888;4.746;2023-08-01T08:28:02;56.35;;;52.00;;
21569;SDS011;57598;50.888;4.746;2023-08-01T08:30:29;50.03;;;46.50;;
21569;SDS011;57598;50.888;4.746;2023-08-01T08:32:58;52.88;;;48.42;;
21569;SDS011;57598;50.888;4.746;2023-08-01T08:35:29;49.97;;;46.67;;
21569;SDS011;57598;50.888;4.746;2023-08-01T08:37:58;48.10;;;45.10;;
21569;SDS011;57598;50.888;4.746;2023-08-01T08:40:25;49.67;;;46.08;;
21569;SDS011;57598;50.888;4.746;2023-08-01T08:42:52;46.75;;;43.35;;
21569;SDS011;57598;50.888;4.746;2023-08-01T08:45:20;50.20;;;46.97;;
21569;SDS011;57598;50.888;4.746;2023-08-01T08:47:49;49.97;;;46.55;;
21569;SDS011;57598;50.888;4.746;2023-08-01T08:50:21;50.03;;;47.00;;
21569;SDS011;57598;50.888;4.746;2023-08-01T08:52:48;50.20;;;46.83;;
21569;SDS011;57598;50.888;4.746;2023-08-01T08:55:15;48.45;;;44.67;;
21569;SDS011;57598;50.888;4.746;2023-08-01T08:57:46;45.20;;;42.50;;
21569;SDS011;57598;50.888;4.746;2023-08-01T09:00:16;46.88;;;43.83;;
21569;SDS011;57598;50.888;4.746;2023-08-01T09:02:44;42.38;;;39.58;;
21569;SDS011;57598;50.888;4.746;2023-08-01T09:05:12;44.33;;;41.40;;
21569;SDS011;57598;50.888;4.746;2023-08-01T09:07:41;42.13;;;39.47;;
21569;SDS011;57598;50.888;4.746;2023-08-01T09:10:09;38.53;;;36.10;;
21569;SDS011;57598;50.888;4.746;2023-08-01T09:12:36;38.15;;;35.17;;
21569;SDS011;57598;50.888;4.746;2023-08-01T09:15:04;38.58;;;36.38;;
21569;SDS011;57598;50.888;4.746;2023-08-01T09:17:31;41.50;;;39.10;;
21569;SDS011;57598;50.888;4.746;2023-08-01T09:20:03;37.17;;;34.88;;
21569;SDS011;57598;50.888;4.746;2023-08-01T09:22:41;34.85;;;32.80;;
21569;SDS011;57598;50.888;4.746;2023-08-01T09:25:09;31.75;;;29.45;;
21569;SDS011;57598;50.888;4.746;2023-08-01T09:27:36;29.92;;;28.02;;
21569;SDS011;57598;50.888;4.746;2023-08-01T09:30:07;28.60;;;26.50;;
21569;SDS011;57598;50.888;4.746;2023-08-01T09:35:02;25.92;;;24.42;;
21569;SDS011;57598;50.888;4.746;2023-08-01T09:37:37;27.38;;;25.52;;
21569;SDS011;57598;50.888;4.746;2023-08-01T09:40:07;25.77;;;24.10;;
21569;SDS011;57598;50.888;4.746;2023-08-01T09:42:38;26.20;;;24.70;;
21569;SDS011;57598;50.888;4.746;2023-08-01T09:45:06;26.90;;;25.02;;
21569;SDS011;57598;50.888;4.746;2023-08-01T09:47:36;25.40;;;24.00;;
21569;SDS011;57598;50.888;4.746;2023-08-01T09:50:03;25.77;;;24.33;;
21569;SDS011;57598;50.888;4.746;2023-08-01T09:52:31;26.48;;;24.73;;
21569;SDS011;57598;50.888;4.746;2023-08-01T09:54:58;26.70;;;25.05;;
21569;SDS011;57598;50.888;4.746;2023-08-01T09:57:28;27.50;;;25.85;;
21569;SDS011;57598;50.888;4.746;2023-08-01T09:59:56;26.60;;;24.73;;
21569;SDS011;57598;50.888;4.746;2023-08-01T10:02:24;24.73;;;23.33;;
21569;SDS011;57598;50.888;4.746;2023-08-01T10:04:51;27.15;;;25.08;;
21569;SDS011;57598;50.888;4.746;2023-08-01T10:07:21;27.20;;;24.77;;
21569;SDS011;57598;50.888;4.746;2023-08-01T10:09:50;23.85;;;22.50;;
21569;SDS011;57598;50.888;4.746;2023-08-01T10:12:17;22.02;;;20.63;;
21569;SDS011;57598;50.888;4.746;2023-08-01T10:14:46;21.30;;;20.08;;
21569;SDS011;57598;50.888;4.746;2023-08-01T10:17:14;25.58;;;23.13;;
21569;SDS011;57598;50.888;4.746;2023-08-01T10:19:42;24.00;;;22.05;;
21569;SDS011;57598;50.888;4.746;2023-08-01T10:22:09;22.48;;;21.10;;
21569;SDS011;57598;50.888;4.746;2023-08-01T10:24:36;23.88;;;22.27;;
21569;SDS011;57598;50.888;4.746;2023-08-01T10:27:11;22.05;;;20.60;;
21569;SDS011;57598;50.888;4.746;2023-08-01T10:29:38;21.88;;;20.40;;
21569;SDS011;57598;50.888;4.746;2023-08-01T10:32:07;22.15;;;20.35;;
21569;SDS011;57598;50.888;4.746;2023-08-01T10:34:34;21.45;;;20.25;;
21569;SDS011;57598;50.888;4.746;2023-08-01T10:37:02;20.77;;;19.50;;
21569;SDS011;57598;50.888;4.746;2023-08-01T10:39:29;21.85;;;20.35;;
21569;SDS011;57598;50.888;4.746;2023-08-01T10:41:57;21.77;;;20.38;;
21569;SDS011;57598;50.888;4.746;2023-08-01T10:44:25;21.27;;;19.88;;
21569;SDS011;57598;50.888;4.746;2023-08-01T10:46:52;20.70;;;19.50;;
21569;SDS011;57598;50.888;4.746;2023-08-01T10:49:33;21.08;;;19.58;;
21569;SDS011;57598;50.888;4.746;2023-08-01T10:52:00;23.15;;;21.60;;
21569;SDS011;57598;50.888;4.746;2023-08-01T10:54:28;21.50;;;20.20;;
21569;SDS011;57598;50.888;4.746;2023-08-01T10:56:57;21.38;;;20.10;;
21569;SDS011;57598;50.888;4.746;2023-08-01T10:59:24;21.23;;;20.00;;
21569;SDS011;57598;50.888;4.746;2023-08-01T11:01:52;19.45;;;18.35;;
21569;SDS011;57598;50.888;4.746;2023-08-01T11:04:20;19.40;;;18.15;;
21569;SDS011;57598;50.888;4.746;2023-08-01T11:06:49;20.23;;;18.10;;
21569;SDS011;57598;50.888;4.746;2023-08-01T11:09:17;18.40;;;17.30;;
21569;SDS011;57598;50.888;4.746;2023-08-01T11:11:44;19.15;;;17.95;;
21569;SDS011;57598;50.888;4.746;2023-08-01T11:14:12;19.90;;;18.50;;
21569;SDS011;57598;50.888;4.746;2023-08-01T11:16:40;19.40;;;18.20;;
21569;SDS011;57598;50.888;4.746;2023-08-01T11:19:17;18.90;;;17.67;;
21569;SDS011;57598;50.888;4.746;2023-08-01T11:21:44;19.55;;;18.08;;
21569;SDS011;57598;50.888;4.746;2023-08-01T11:24:13;18.75;;;17.60;;
21569;SDS011;57598;50.888;4.746;2023-08-01T11:26:41;18.52;;;17.27;;
21569;SDS011;57598;50.888;4.746;2023-08-01T11:29:09;17.92;;;16.83;;
21569;SDS011;57598;50.888;4.746;2023-08-01T11:31:36;19.58;;;18.15;;
21569;SDS011;57598;50.888;4.746;2023-08-01T11:34:03;19.42;;;17.92;;
21569;SDS011;57598;50.888;4.746;2023-08-01T11:36:33;21.40;;;19.90;;
21569;SDS011;57598;50.888;4.746;2023-08-01T11:39:00;18.58;;;17.48;;
21569;SDS011;57598;50.888;4.746;2023-08-01T11:41:30;22.48;;;20.73;;
21569;SDS011;57598;50.888;4.746;2023-08-01T11:44:01;19.05;;;17.48;;
21569;SDS011;57598;50.888;4.746;2023-08-01T11:46:30;19.10;;;17.73;;
21569;SDS011;57598;50.888;4.746;2023-08-01T11:48:58;20.08;;;18.67;;
21569;SDS011;57598;50.888;4.746;2023-08-01T11:51:26;20.90;;;19.23;;
21569;SDS011;57598;50.888;4.746;2023-08-01T11:53:59;20.25;;;18.67;;
21569;SDS011;57598;50.888;4.746;2023-08-01T11:56:27;22.30;;;21.00;;
21569;SDS011;57598;50.888;4.746;2023-08-01T11:58:56;22.95;;;21.13;;
21569;SDS011;57598;50.888;4.746;2023-08-01T12:01:23;21.45;;;20.02;;
21569;SDS011;57598;50.888;4.746;2023-08-01T12:03:51;20.75;;;19.45;;
21569;SDS011;57598;50.888;4.746;2023-08-01T12:06:19;19.90;;;18.77;;
21569;SDS011;57598;50.888;4.746;2023-08-01T12:08:48;21.38;;;19.90;;
21569;SDS011;57598;50.888;4.746;2023-08-01T12:11:19;20.83;;;19.52;;
21569;SDS011;57598;50.888;4.746;2023-08-01T12:13:46;25.70;;;19.73;;
21569;SDS011;57598;50.888;4.746;2023-08-01T12:16:15;20.13;;;18.52;;
21569;SDS011;57598;50.888;4.746;2023-08-01T12:18:45;19.92;;;18.55;;
21569;SDS011;57598;50.888;4.746;2023-08-01T12:21:13;18.63;;;17.52;;
21569;SDS011;57598;50.888;4.746;2023-08-01T12:23:40;18.55;;;17.33;;
21569;SDS011;57598;50.888;4.746;2023-08-01T12:26:07;19.02;;;17.70;;
21569;SDS011;57598;50.888;4.746;2023-08-01T12:28:35;18.83;;;17.70;;
21569;SDS011;57598;50.888;4.746;2023-08-01T12:31:02;19.30;;;17.90;;
21569;SDS011;57598;50.888;4.746;2023-08-01T12:33:31;19.17;;;17.80;;
21569;SDS011;57598;50.888;4.746;2023-08-01T12:35:59;20.30;;;18.50;;
21569;SDS011;57598;50.888;4.746;2023-08-01T12:38:26;18.88;;;17.80;;
21569;SDS011;57598;50.888;4.746;2023-08-01T12:40:53;19.25;;;18.05;;
21569;SDS011;57598;50.888;4.746;2023-08-01T12:43:21;19.25;;;18.05;;
21569;SDS011;57598;50.888;4.746;2023-08-01T12:45:48;18.08;;;16.88;;
21569;SDS011;57598;50.888;4.746;2023-08-01T12:48:15;18.08;;;16.92;;
21569;SDS011;57598;50.888;4.746;2023-08-01T12:50:46;18.45;;;17.20;;
21569;SDS011;57598;50.888;4.746;2023-08-01T12:53:14;18.23;;;17.02;;
21569;SDS011;57598;50.888;4.746;2023-08-01T12:55:42;17.52;;;16.42;;
21569;SDS011;57598;50.888;4.746;2023-08-01T12:58:10;16.90;;;15.80;;
21569;SDS011;57598;50.888;4.746;2023-08-01T13:00:38;18.58;;;17.38;;
21569;SDS011;57598;50.888;4.746;2023-08-01T13:03:05;20.00;;;18.55;;
21569;SDS011;57598;50.888;4.746;2023-08-01T13:05:33;20.48;;;18.42;;
21569;SDS011;57598;50.888;4.746;2023-08-01T13:08:02;19.85;;;18.55;;
21569;SDS011;57598;50.888;4.746;2023-08-01T13:10:29;20.58;;;18.83;;
21569;SDS011;57598;50.888;4.746;2023-08-01T13:12:57;21.10;;;19.60;;
21569;SDS011;57598;50.888;4.746;2023-08-01T13:15:24;20.58;;;19.38;;
21569;SDS011;57598;50.888;4.746;2023-08-01T13:17:52;20.27;;;19.10;;
21569;SDS011;57598;50.888;4.746;2023-08-01T13:20:19;22.08;;;20.50;;
21569;SDS011;57598;50.888;4.746;2023-08-01T13:22:47;20.45;;;18.98;;
21569;SDS011;57598;50.888;4.746;2023-08-01T13:25:16;19.08;;;17.98;;
21569;SDS011;57598;50.888;4.746;2023-08-01T13:27:44;18.80;;;17.42;;
21569;SDS011;57598;50.888;4.746;2023-08-01T13:30:11;19.20;;;17.90;;
21569;SDS011;57598;50.888;4.746;2023-08-01T13:32:39;19.15;;;17.75;;
21569;SDS011;57598;50.888;4.746;2023-08-01T13:35:07;19.52;;;18.17;;
21569;SDS011;57598;50.888;4.746;2023-08-01T13:37:34;19.00;;;17.90;;
21569;SDS011;57598;50.888;4.746;2023-08-01T13:40:02;19.35;;;17.95;;
21569;SDS011;57598;50.888;4.746;2023-08-01T13:42:30;19.20;;;18.08;;
21569;SDS011;57598;50.888;4.746;2023-08-01T13:44:58;18.90;;;17.70;;
21569;SDS011;57598;50.888;4.746;2023-08-01T13:47:26;19.50;;;18.30;;
21569;SDS011;57598;50.888;4.746;2023-08-01T13:49:53;18.95;;;17.85;;
21569;SDS011;57598;50.888;4.746;2023-08-01T13:52:20;18.80;;;17.30;;
21569;SDS011;57598;50.888;4.746;2023-08-01T13:54:48;19.13;;;17.83;;
21569;SDS011;57598;50.888;4.746;2023-08-01T13:57:15;19.55;;;17.38;;
21569;SDS011;57598;50.888;4.746;2023-08-01T13:59:44;19.13;;;17.92;;
21569;SDS011;57598;50.888;4.746;2023-08-01T14:02:11;18.55;;;17.35;;
21569;SDS011;57598;50.888;4.746;2023-08-01T14:04:38;17.80;;;16.77;;
21569;SDS011;57598;50.888;4.746;2023-08-01T14:07:05;18.05;;;16.95;;
21569;SDS011;57598;50.888;4.746;2023-08-01T14:09:33;17.25;;;16.05;;
21569;SDS011;57598;50.888;4.746;2023-08-01T14:12:01;17.33;;;16.02;;
21569;SDS011;57598;50.888;4.746;2023-08-01T14:14:28;17.17;;;16.17;;
21569;SDS011;57598;50.888;4.746;2023-08-01T14:16:57;18.40;;;17.20;;
21569;SDS011;57598;50.888;4.746;2023-08-01T14:19:24;17.67;;;16.58;;
21569;SDS011;57598;50.888;4.746;2023-08-01T14:21:54;17.33;;;16.13;;
21569;SDS011;57598;50.888;4.746;2023-08-01T14:24:22;19.65;;;18.02;;
21569;SDS011;57598;50.888;4.746;2023-08-01T14:26:49;19.83;;;18.27;;